Nearby METAR Reports

 

KTEB - Teterboro, New Jersey, USA
Distance from station: ENE 2mi, 4km
Updated: 10/27/2021 3:51am
Light rain, Overcast
Light rain, Overcast
 Wind from N
Wind: N 10 mph , 17 km/h, Gust: 20 mph , 31 km/h
Temperature: 55°F , 13°C
Dew Point: 52°F , 11°C
Humidity: 88%
Barometer: 29.49 inHg , 998.6 hPa
Summary: Light rain
Clouds: Overcast
Visibility: 10 miles , 16 km
Cloud details: Overcast 8000 ft
2021/10/27 07:51 KTEB 270751Z 35009G17KT 10SM -RA OVC080 13/11 A2949 RMK AO2 SLP987 P0003 T01280111
KNYC - Nyc/Central Park, New York, USA
Distance from station: SE 8mi, 13km
Updated: 10/27/2021 4:03am
Light rain, Overcast
Light rain, Overcast
 Wind from NNW
Wind: NNW 9 mph , 15 km/h
Temperature: 55°F , 13°C
Dew Point: 52°F , 11°C
Humidity: 88%
Barometer: 29.52 inHg , 999.7 hPa
Summary: Light rain
Clouds: Overcast
Visibility: 10 miles , 16 km
Cloud details: Mostly cloudy 1700 ft
Mostly cloudy 2900 ft
Overcast 7500 ft
2021/10/27 08:03 KNYC 270803Z AUTO 33008KT 10SM -RA BKN017 BKN029 OVC075 13/11 A2952 RMK AO2 P0001 T01280111
 
KCDW - Caldwell, New Jersey, USA
Distance from station: WNW 10mi, 17km
Updated: 10/27/2021 3:53am
Light rain, Overcast
Light rain, Overcast
 Wind from varies
Wind: varies 3 mph , 6 km/h
Temperature: 57°F , 14°C
Dew Point: 52°F , 11°C
Humidity: 82%
Barometer: 29.53 inHg , 1000 hPa
Summary: Light rain
Clouds: Overcast
Visibility: 10 miles , 16 km
Cloud details: Overcast 9000 ft
2021/10/27 07:53 KCDW 270753Z AUTO VRB03KT 10SM -RA OVC090 14/11 A2953 RMK AO2 SLP004 P0001 T01440111
KLGA - Nyc/La Guardia, New York, USA
Distance from station: ESE 12mi, 19km
Updated: 10/27/2021 3:51am
Light rain, Overcast
Light rain, Overcast
 Wind from NNW
Wind: NNW 17 mph , 28 km/h, Gust: 32 mph , 52 km/h
Temperature: 57°F , 14°C
Dew Point: 52°F , 11°C
Humidity: 82%
Barometer: 29.48 inHg , 998.3 hPa
Summary: Light rain
Clouds: Overcast
Visibility: 10 miles , 16 km
Cloud details: Few Clouds 1900 ft
Mostly cloudy 6000 ft
Overcast 7000 ft
2021/10/27 07:51 KLGA 270751Z 34015G28KT 10SM -RA FEW019 BKN060 OVC070 14/11 A2948 RMK AO2 PK WND 33028/0743 SLP981 P0008 T01390111
 
KEWR - Newark, New Jersey, USA
Distance from station: SSW 12mi, 20km
Updated: 10/27/2021 3:51am
Light rain, Mostly cloudy
Light rain, Mostly cloudy
 Wind from NNW
Wind: NNW 18 mph , 30 km/h
Temperature: 57°F , 14°C
Dew Point: 54°F , 12°C
Humidity: 88%
Barometer: 29.51 inHg , 999.3 hPa
Summary: Light rain
Clouds: Mostly cloudy
Visibility: 10 miles , 16 km
Cloud details: Few Clouds 2000 ft
Few Clouds 4500 ft
Mostly cloudy 9000 ft
2021/10/27 07:51 KEWR 270751Z 34016KT 10SM -RA FEW020 FEW045 BKN090 14/12 A2951 RMK AO2 SLP992 P0004 T01390117
KMMU - Morristown Muni, New Jersey, USA
Distance from station: WSW 18mi, 29km
Updated: 10/27/2021 4:35am
Overcast
Overcast
 Wind from NW
Wind: NW 10 mph , 17 km/h
Temperature: 55°F , 13°C
Dew Point: 52°F , 11°C
Humidity: 88%
Barometer: 29.53 inHg , 1000 hPa
Clouds: Overcast
Visibility: 10 miles , 16 km
Cloud details: Overcast 9000 ft
2021/10/27 08:35 KMMU 270835Z AUTO 32009KT 10SM OVC090 13/11 A2953 RMK AO2
 
KJFK - Nyc/Jfk Arpt, New York, USA
Distance from station: SE 23mi, 36km
Updated: 10/27/2021 4:24am
Light rain, Overcast
Light rain, Overcast
 Wind from NNW
Wind: NNW 22 mph , 35 km/h, Gust: 31 mph , 50 km/h
Temperature: 55°F , 13°C
Dew Point: 54°F , 12°C
Humidity: 94%
Barometer: 29.48 inHg , 998.3 hPa
Summary: Light rain
Clouds: Overcast
Visibility: 10 miles , 16 km
Cloud details: Mostly cloudy 1800 ft
Overcast 7000 ft
2021/10/27 08:24 KJFK 270824Z 34019G27KT 10SM -RA BKN018 OVC070 13/12 A2948 RMK AO2 PK WND 34027/0820 P0001 T01330117
KHPN - White Plains, New York, USA
Distance from station: NE 25mi, 40km
Updated: 10/27/2021 3:56am
Mostly cloudy
Mostly cloudy
 Wind from NNW
Wind: NNW 20 mph , 31 km/h, Gust: 35 mph , 56 km/h
Temperature: 54°F , 12°C
Dew Point: 50°F , 10°C
Humidity: 88%
Barometer: 29.47 inHg , 998 hPa
Clouds: Mostly cloudy
Visibility: 10 miles , 16 km
Cloud details: Mostly cloudy 1600 ft
Mostly cloudy 10000 ft
2021/10/27 07:56 KHPN 270756Z 34017G30KT 10SM BKN016 BKN100 12/10 A2947 RMK AO2 PK WND 34030/0718 RAE22 SLP978 P0001 T01170100
 
KSMQ - Somerville, New Jersey, USA
Distance from station: WSW 34mi, 55km
Updated: 10/27/2021 3:53am
Light rain, Overcast
Light rain, Overcast
 Wind from NNW
Wind: NNW 9 mph , 15 km/h
Temperature: 57°F , 14°C
Dew Point: 54°F , 12°C
Humidity: 88%
Barometer: 29.53 inHg , 1000 hPa
Summary: Light rain
Clouds: Overcast
Visibility: 10 miles , 16 km
Cloud details: Few Clouds 6000 ft
Partly cloudy 7000 ft
Overcast 11000 ft
2021/10/27 07:53 KSMQ 270753Z AUTO 34008KT 10SM -RA FEW060 SCT070 OVC110 14/12 A2953 RMK AO2 RAB49 SLP998 P0000 T01390117
K12N - Andover, New Jersey, USA
Distance from station: WNW 36mi, 57km
Updated: 10/27/2021 3:54am

 Wind from N
Wind: N 8 mph , 13 km/h
Temperature: 55°F , 13°C
Dew Point: 52°F , 11°C
Humidity: 88%
Barometer: 29.58 inHg , 1001.7 hPa
2021/10/27 07:54 K12N 270754Z AUTO 35007KT 13/11 A2958 RMK AO1 SLP014 T01330111
 
KFRG - Farmingdale, New York, USA
Distance from station: ESE 36mi, 58km
Updated: 10/27/2021 4:24am
Rain, Mist, Overcast
Rain, Mist, Overcast
 Wind from N
Wind: N 14 mph , 22 km/h, Gust: 25 mph , 41 km/h
Temperature: 55°F , 13°C
Dew Point: 52°F , 11°C
Humidity: 88%
Barometer: 29.44 inHg , 997 hPa
Summary: Rain, Mist
Clouds: Overcast
Visibility: 6 miles , 10 km
Cloud details: Few Clouds 2000 ft
Partly cloudy 2500 ft
Overcast 4600 ft
2021/10/27 08:24 KFRG 270824Z AUTO 35012G22KT 6SM RA BR FEW020 SCT025 OVC046 13/11 A2944 RMK AO2 P0005 T01280111
KFWN - Sussex, New Jersey, USA
Distance from station: NW 37mi, 60km
Updated: 10/27/2021 3:53am
Light rain, Overcast
Light rain, Overcast
 Wind from N
Wind: N 8 mph , 13 km/h
Temperature: 55°F , 13°C
Dew Point: 52°F , 11°C
Humidity: 88%
Barometer: 29.57 inHg , 1001.4 hPa
Summary: Light rain
Clouds: Overcast
Visibility: 10 miles , 16 km
Cloud details: Partly cloudy 4400 ft
Mostly cloudy 7500 ft
Overcast 9000 ft
2021/10/27 07:53 KFWN 270753Z AUTO 35007KT 290V040 10SM -RA SCT044 BKN075 OVC090 13/11 A2957 RMK AO2 SLP013 P0001 T01330111 $
 
KSWF - Newburgh/Stewart, New York, USA
Distance from station: 0 45mi, 72km
Updated: 10/27/2021 4:45am
Overcast
Overcast
 Wind from N
Wind: N 12 mph , 19 km/h
Temperature: 54°F , 12°C
Dew Point: 52°F , 11°C
Humidity: 94%
Barometer: 29.56 inHg , 1001 hPa
Clouds: Overcast
Visibility: 7 miles , 11 km
Cloud details: Mostly cloudy 1500 ft
Overcast 5000 ft
2021/10/27 08:45 KSWF 270845Z 01010KT 7SM BKN015 OVC050 12/11 A2956
KMGJ - Montgomery, New York, USA
Distance from station: NNW 47mi, 75km
Updated: 10/27/2021 3:54am
Light rain, Overcast
Light rain, Overcast
 Wind from NNW
Wind: NNW 3 mph , 6 km/h
Temperature: 54°F , 12°C
Dew Point: 52°F , 11°C
Humidity: 94%
Barometer: 29.56 inHg , 1001 hPa
Summary: Light rain
Clouds: Overcast
Visibility: 10 miles , 16 km
Cloud details: Overcast 9000 ft
2021/10/27 07:54 KMGJ 270754Z AUTO 34003KT 10SM -RA OVC090 12/11 A2956 RMK AO2 SLP009 P0001 T01170106
 
KBLM - Belmar/Farmdale, New Jersey, USA
Distance from station: S 47mi, 76km
Updated: 10/27/2021 3:56am

 
2021/10/27 07:56 KBLM 270756Z AUTO RMK AO2 SLPNO PWINO FZRANO RVRNO PNO $
KDXR - Danbury, Connecticut, USA
Distance from station: NE 47mi, 76km
Updated: 10/27/2021 3:53am
Light rain, Overcast
Light rain, Overcast
 Wind from NNW
Wind: NNW 9 mph , 15 km/h
Temperature: 55°F , 13°C
Dew Point: 52°F , 11°C
Humidity: 88%
Barometer: 29.50 inHg , 999 hPa
Summary: Light rain
Clouds: Overcast
Visibility: 10 miles , 16 km
Cloud details: Overcast 3300 ft
2021/10/27 07:53 KDXR 270753Z AUTO 34008KT 10SM -RA OVC033 13/11 A2950 RMK AO2 SLP986 P0001 T01330106
 
KISP - Islip, New York, USA
Distance from station: E 52mi, 83km
Updated: 10/27/2021 4:37am
Rain, Overcast
Rain, Overcast
 Wind from NNW
Wind: NNW 16 mph , 26 km/h, Gust: 28 mph , 44 km/h
Temperature: 55°F , 13°C
Dew Point: 54°F , 12°C
Humidity: 94%
Barometer: 29.42 inHg , 996.3 hPa
Summary: Rain
Clouds: Overcast
Visibility: 8 miles , 13 km
Cloud details: Partly cloudy 2600 ft
Mostly cloudy 3200 ft
Overcast 4300 ft
2021/10/27 08:37 KISP 270837Z AUTO 34014G24KT 8SM RA SCT026 BKN032 OVC043 13/12 A2942 RMK AO2 P0010 T01330122
KBDR - Bridgeport, Connecticut, USA
Distance from station: ENE 54mi, 87km
Updated: 10/27/2021 3:52am
Light rain, Overcast
Light rain, Overcast
 Wind from N
Wind: N 15 mph , 24 km/h, Gust: 30 mph , 48 km/h
Temperature: 57°F , 14°C
Dew Point: 52°F , 11°C
Humidity: 82%
Barometer: 29.41 inHg , 995.9 hPa
Summary: Light rain
Clouds: Overcast
Visibility: 10 miles , 16 km
Cloud details: Few Clouds 7500 ft
Overcast 10000 ft
2021/10/27 07:52 KBDR 270752Z AUTO 35013G26KT 10SM -RA FEW075 OVC100 14/11 A2941 RMK AO2 PK WND 34029/0656 SLP960 P0002 T01390111
 
KTTN - Trenton, New Jersey, USA
Distance from station: SW 55mi, 88km
Updated: 10/27/2021 3:53am
Overcast
Overcast
 Wind from NNW
Wind: NNW 12 mph , 19 km/h
Temperature: 55°F , 13°C
Dew Point: 54°F , 12°C
Humidity: 94%
Barometer: 29.54 inHg , 1000.3 hPa
Clouds: Overcast
Visibility: 10 miles , 16 km
Cloud details: Few Clouds 2200 ft
Overcast 7500 ft
2021/10/27 07:53 KTTN 270753Z AUTO 33010KT 10SM FEW022 OVC075 13/12 A2954 RMK AO2 SLP996 T01280117
KPOU - Poughkeepsie, New York, USA
Distance from station: N 55mi, 89km
Updated: 10/27/2021 3:53am
Overcast
Overcast
 Wind from N
Wind: N 13 mph , 20 km/h, Gust: 28 mph , 44 km/h
Temperature: 54°F , 12°C
Dew Point: 52°F , 11°C
Humidity: 94%
Barometer: 29.54 inHg , 1000.3 hPa
Clouds: Overcast
Visibility: 10 miles , 16 km
Cloud details: Overcast 1700 ft
2021/10/27 07:53 KPOU 270753Z AUTO 35011G24KT 10SM OVC017 12/11 A2954 RMK AO2 PK WND 34026/0731 RAE23 SLP000 P0000 T01220106
 
KNEL - Lakehurst Nas, New Jersey, USA
Distance from station: SSW 59mi, 95km
Updated: 10/27/2021 4:38am
Rain, Mist, Overcast
Rain, Mist, Overcast
 Wind from WNW
Wind: WNW 7 mph , 11 km/h
Temperature: 54°F , 12°C
Dew Point: 54°F , 12°C
Humidity: 100%
Barometer: 29.52 inHg , 999.7 hPa
Summary: Rain, Mist
Clouds: Overcast
Visibility: 6 miles , 10 km
Cloud details: Few Clouds 2000 ft
Partly cloudy 2400 ft
Overcast 4900 ft
2021/10/27 08:38 KNEL 270838Z AUTO 30006KT 6SM RA BR FEW020 SCT024 OVC049 12/12 A2952 RMK AO2 RAB05 P0003 T01220117 $
KWRI - Wrightst/Mcguire, New Jersey, USA
Distance from station: SSW 63mi, 102km
Updated: 10/27/2021 3:56am
Mostly cloudy
Mostly cloudy
 Wind from NW
Wind: NW 7 mph , 11 km/h
Temperature: 55°F , 13°C
Dew Point: 54°F , 12°C
Humidity: 94%
Barometer: 29.53 inHg , 1000 hPa
Clouds: Mostly cloudy
Visibility: 10 miles , 16 km
Cloud details: Mostly cloudy 2500 ft
Mostly cloudy 3100 ft
2021/10/27 07:56 KWRI 270756Z 32006KT 10SM BKN025 BKN031 13/12 A2953 RMK AO2A SLP999 60003 T01250120 51011
 
KHWV - Shirley, New York, USA
Distance from station: E 64mi, 103km
Updated: 10/27/2021 3:56am
Light rain, Overcast
Light rain, Overcast
 Wind from NNW
Wind: NNW 15 mph , 24 km/h, Gust: 29 mph , 46 km/h
Temperature: 54°F , 12°C
Dew Point: 50°F , 10°C
Humidity: 88%
Barometer: 29.40 inHg , 995.6 hPa
Summary: Light rain
Clouds: Overcast
Visibility: 10 miles , 16 km
Cloud details: Mostly cloudy 1500 ft
Mostly cloudy 2100 ft
Overcast 2600 ft
2021/10/27 07:56 KHWV 270756Z AUTO 34013G25KT 10SM -RA BKN015 BKN021 OVC026 12/10 A2940 RMK AO2 PK WND 36030/0715 SLP957 P0016 T01220100
KMJX - Toms River, New Jersey, USA
Distance from station: S 64mi, 104km
Updated: 10/27/2021 3:43am
Overcast
Overcast
 Wind from NNW
Wind: NNW 10 mph , 17 km/h
Temperature: 54°F , 12°C
Dew Point: 54°F , 12°C
Humidity: 100%
Barometer: 29.51 inHg , 999.3 hPa
Clouds: Overcast
Visibility: 10 miles , 16 km
Cloud details: Few Clouds 1400 ft
Overcast 2400 ft
2021/10/27 07:43 KMJX 270743Z AUTO 33009KT 10SM FEW014 OVC024 12/12 A2951 RMK AO2 RAE38 P0001 TSNO
 
KDYL - Doylestown, Pennsylvania, USA
Distance from station: SW 65mi, 104km
Updated: 10/27/2021 3:54am
Overcast
Overcast
 Wind from NNW
Wind: NNW 8 mph , 13 km/h, Gust: 16 mph , 26 km/h
Temperature: 55°F , 13°C
Dew Point: 52°F , 11°C
Humidity: 88%
Barometer: 29.56 inHg , 1001 hPa
Clouds: Overcast
Visibility: 10 miles , 16 km
Cloud details: Few Clouds 4600 ft
Overcast 6000 ft
2021/10/27 07:54 KDYL 270754Z AUTO 33007G14KT 10SM FEW046 OVC060 13/11 A2956 RMK AO2 RAE32 SLP010 P0003 T01330111
KOXC - Oxford/Waterbury, Connecticut, USA
Distance from station: NE 65mi, 105km
Updated: 10/27/2021 3:51am
Overcast
Overcast
 Wind from N
Wind: N 17 mph , 28 km/h, Gust: 30 mph , 48 km/h
Temperature: 54°F , 12°C
Dew Point: 52°F , 11°C
Humidity: 94%
Barometer: 29.46 inHg , 997.6 hPa
Clouds: Overcast
Visibility: 10 miles , 16 km
Cloud details: Overcast 2300 ft
2021/10/27 07:51 KOXC 270751Z AUTO 36015G26KT 10SM OVC023 12/11 A2946 RMK AO2 PK WND 36027/0733 RAE38 SLP985 P0000 T01220106
 
KMSV - Monticello, New York, USA
Distance from station: NNW 69mi, 111km
Updated: 10/27/2021 3:56am
Overcast
Overcast
 Wind from NNW
Wind: NNW 16 mph , 26 km/h
Temperature: 52°F , 11°C
Dew Point: 50°F , 10°C
Humidity: 94%
Barometer: 29.63 inHg , 1003.4 hPa
Clouds: Overcast
Visibility: 10 miles , 16 km
Cloud details: Few Clouds 1400 ft
Mostly cloudy 6000 ft
Overcast 9000 ft
2021/10/27 07:56 KMSV 270756Z AUTO 33014KT 10SM FEW014 BKN060 OVC090 11/10 A2963 RMK AO2 SLP036 T01110100
KHVN - New Haven/Tweed, Connecticut, USA
Distance from station: ENE 70mi, 112km
Updated: 10/27/2021 4:04am
Overcast
Overcast
 Wind from N
Wind: N 26 mph , 43 km/h, Gust: 41 mph , 67 km/h
Temperature: 57°F , 14°C
Dew Point: 52°F , 11°C
Humidity: 82%
Barometer: 29.40 inHg , 995.6 hPa
Clouds: Overcast
Visibility: 10 miles , 16 km
Cloud details: Mostly cloudy 2600 ft
Mostly cloudy 4000 ft
Overcast 6000 ft
2021/10/27 08:04 KHVN 270804Z AUTO 36023G36KT 10SM BKN026 BKN040 OVC060 14/11 A2940 RMK AO2 PK WND 36036/0803 T01440111
 
KMPO - Mt. Pocono, Pennsylvania, USA
Distance from station: WNW 70mi, 113km
Updated: 10/27/2021 4:36am
Overcast
Overcast
 Wind from NNW
Wind: NNW 14 mph , 22 km/h
Temperature: 50°F , 10°C
Wind Chill: 45°F , 7°C
Dew Point: 50°F , 10°C
Humidity: 100%
Barometer: 29.65 inHg , 1004.1 hPa
Clouds: Overcast
Visibility: 10 miles , 16 km
Cloud details: Overcast 800 ft
2021/10/27 08:36 KMPO 270836Z AUTO 33012KT 10SM OVC008 10/10 A2965 RMK AO2 RAB0756E15 P0000 T01000100
KPNE - Philadelphia/Ne, Pennsylvania, USA
Distance from station: SW 72mi, 116km
Updated: 10/27/2021 3:54am
Overcast
Overcast
 Wind from NNW
Wind: NNW 14 mph , 22 km/h, Gust: 22 mph , 35 km/h
Temperature: 55°F , 13°C
Dew Point: 54°F , 12°C
Humidity: 94%
Barometer: 29.56 inHg , 1001 hPa
Clouds: Overcast
Visibility: 10 miles , 16 km
Cloud details: Partly cloudy 4400 ft
Overcast 6500 ft
2021/10/27 07:54 KPNE 270754Z AUTO 33012G19KT 10SM SCT044 OVC065 13/12 A2956 RMK AO2 RAB01E10 SLP010 P0000 T01280122
 
KABE - Allentown, Pennsylvania, USA
Distance from station: W 73mi, 117km
Updated: 10/27/2021 3:51am
Overcast
Overcast
 Wind from NNW
Wind: NNW 9 mph , 15 km/h
Temperature: 55°F , 13°C
Dew Point: 50°F , 10°C
Humidity: 82%
Barometer: 29.60 inHg , 1002.4 hPa
Clouds: Overcast
Visibility: 10 miles , 16 km
Cloud details: Overcast 7000 ft
2021/10/27 07:51 KABE 270751Z 33008KT 10SM OVC070 13/10 A2960 RMK AO2 RAE51 SLP023 P0000 T01280100
KUKT - Quakertown Arp, Pennsylvania, USA
Distance from station: WSW 74mi, 119km
Updated: 10/27/2021 4:35am
Mostly cloudy
Mostly cloudy
 Wind from NW
Wind: NW 10 mph , 17 km/h
Temperature: 54°F , 12°C
Dew Point: 54°F , 12°C
Humidity: 100%
Barometer: 29.60 inHg , 1002.4 hPa
Clouds: Mostly cloudy
Visibility: 10 miles , 16 km
Cloud details: Few Clouds 4400 ft
Partly cloudy 5000 ft
Mostly cloudy 7500 ft
2021/10/27 08:35 KUKT 270835Z AUTO 32009KT 10SM FEW044 SCT050 BKN075 12/12 A2960 RMK A01 P0001
 
KVAY - Mount Holly, New Jersey, USA
Distance from station: SSW 75mi, 120km
Updated: 10/27/2021 3:54am
Light rain, Overcast
Light rain, Overcast
 Wind from WNW
Wind: WNW 6 mph , 9 km/h
Temperature: 55°F , 13°C
Dew Point: 54°F , 12°C
Humidity: 94%
Barometer: 29.54 inHg , 1000.3 hPa
Summary: Light rain
Clouds: Overcast
Visibility: 10 miles , 16 km
Cloud details: Mostly cloudy 3800 ft
Overcast 7000 ft
2021/10/27 07:54 KVAY 270754Z AUTO 30005KT 10SM -RA BKN038 OVC070 13/12 A2954 RMK AO2 RAE03B51 SLP003 P0000 T01280117
KXLL - Allentown Queen, Pennsylvania, USA
Distance from station: WSW 76mi, 122km
Updated: 10/27/2021 4:35am
Overcast
Overcast
 Wind from NNW
Wind: NNW 6 mph , 9 km/h
Temperature: 55°F , 13°C
Dew Point: 52°F , 11°C
Humidity: 88%
Barometer: 29.63 inHg , 1003.4 hPa
Clouds: Overcast
Visibility: 10 miles , 16 km
Cloud details: Overcast 8500 ft
2021/10/27 08:35 KXLL 270835Z AUTO 34005KT 10SM OVC085 13/11 A2963 RMK AO2
 
KFOK - Westhampton Beac, New York, USA
Distance from station: E 77mi, 124km
Updated: 10/27/2021 3:53am
Overcast
Overcast
 Wind from N
Wind: N 20 mph , 31 km/h, Gust: 29 mph , 46 km/h
Temperature: 54°F , 12°C
Dew Point: 52°F , 11°C
Humidity: 94%
Barometer: 29.39 inHg , 995.3 hPa
Clouds: Overcast
Visibility: 10 miles , 16 km
Cloud details: Overcast 2000 ft
2021/10/27 07:53 KFOK 270753Z 36017G25KT 10SM OVC020 12/11 A2939 RMK AO2 RAE42 SLP950 P0008 T01220106
KLOM - Philly Wings F, Pennsylvania, USA
Distance from station: SW 79mi, 128km
Updated: 10/27/2021 4:35am
Overcast
Overcast
 Wind from NW
Wind: NW 7 mph , 11 km/h
Temperature: 54°F , 12°C
Dew Point: 52°F , 11°C
Humidity: 94%
Barometer: 29.59 inHg , 1002 hPa
Clouds: Overcast
Visibility: 10 miles , 16 km
Cloud details: Partly cloudy 7500 ft
Overcast 8000 ft
2021/10/27 08:35 KLOM 270835Z AUTO 32006KT 10SM SCT075 OVC080 12/11 A2959 RMK AO2 T01210114
 
KMMK - Meriden, Connecticut, USA
Distance from station: NE 80mi, 128km
Updated: 10/27/2021 3:53am
Overcast
Overcast
 Wind from N
Wind: N 13 mph , 20 km/h, Gust: 29 mph , 46 km/h
Temperature: 55°F , 13°C
Dew Point: 48°F , 9°C
Humidity: 77%
Barometer: 29.43 inHg , 996.6 hPa
Clouds: Overcast
Visibility: 10 miles , 16 km
Cloud details: Mostly cloudy 2500 ft
Overcast 3100 ft
2021/10/27 07:53 KMMK 270753Z AUTO 35011G25KT 10SM BKN025 OVC031 13/09 A2943 RMK AO2 PK WND 36028/0711 RAE0654 SLP965 P0000 T01330089
KPTW - Pottstown, Pennsylvania, USA
Distance from station: WSW 88mi, 141km
Updated: 10/27/2021 3:54am
Overcast
Overcast
 Wind from NNW
Wind: NNW 8 mph , 13 km/h
Temperature: 52°F , 11°C
Dew Point: 52°F , 11°C
Humidity: 100%
Barometer: 29.61 inHg , 1002.7 hPa
Clouds: Overcast
Visibility: 7 miles , 11 km
Cloud details: Mostly cloudy 6500 ft
Overcast 8500 ft
2021/10/27 07:54 KPTW 270754Z AUTO 34007KT 7SM BKN065 OVC085 11/11 A2961 RMK AO2 RAE39 SLP025 P0001 T01110106
 
KSNC - Chester, Connecticut, USA
Distance from station: ENE 90mi, 146km
Updated: 10/27/2021 4:35am
Overcast
Overcast
 Wind from NNE
Wind: NNE 17 mph , 28 km/h, Gust: 28 mph , 44 km/h
Temperature: 52°F , 11°C
Dew Point: 52°F , 11°C
Humidity: 100%
Barometer: 29.38 inHg , 994.9 hPa
Clouds: Overcast
Visibility: 9 miles , 14 km
Cloud details: Few Clouds 900 ft
Mostly cloudy 1400 ft
Overcast 2900 ft
2021/10/27 08:35 KSNC 270835Z AUTO 02015G24KT 360V090 9SM FEW009 BKN014 OVC029 11/11 A2938 RMK AO2
KPHL - Philadelphia, Pennsylvania, USA
Distance from station: SW 91mi, 146km
Updated: 10/27/2021 4:41am
Overcast
Overcast
 Wind from N
Wind: N 13 mph , 20 km/h
Temperature: 55°F , 13°C
Dew Point: 52°F , 11°C
Humidity: 88%
Barometer: 29.57 inHg , 1001.4 hPa
Clouds: Overcast
Visibility: 10 miles , 16 km
Cloud details: Partly cloudy 4000 ft
Overcast 7000 ft
2021/10/27 08:41 KPHL 270841Z 35011KT 10SM SCT040 OVC070 13/11 A2957 RMK AO2 RAE01 P0001 T01280111
 
KAVP - Avoca/Wilkes B., Pennsylvania, USA
Distance from station: WNW 91mi, 147km
Updated: 10/27/2021 3:54am
Light rain, Overcast
Light rain, Overcast
 Wind from calm
Wind: Calm
Temperature: 55°F , 13°C
Dew Point: 52°F , 11°C
Humidity: 88%
Barometer: 29.68 inHg , 1005.1 hPa
Summary: Light rain
Clouds: Overcast
Visibility: 10 miles , 16 km
Cloud details: Overcast 1400 ft
2021/10/27 07:54 KAVP 270754Z 00000KT 10SM -RA OVC014 13/11 A2968 RMK AO2 RAE19B44 SLP047 P0000 T01280106
KHFD - Hartford/Brainar, Connecticut, USA
Distance from station: NE 96mi, 155km
Updated: 10/27/2021 3:53am
Light rain, Overcast
Light rain, Overcast
 Wind from N
Wind: N 20 mph , 31 km/h, Gust: 30 mph , 48 km/h
Temperature: 55°F , 13°C
Dew Point: 48°F , 9°C
Humidity: 77%
Barometer: 29.44 inHg , 997 hPa
Summary: Light rain
Clouds: Overcast
Visibility: 8 miles , 13 km
Cloud details: Mostly cloudy 1900 ft
Mostly cloudy 2500 ft
Overcast 3100 ft
2021/10/27 07:53 KHFD 270753Z AUTO 36017G26KT 8SM -RA BKN019 BKN025 OVC031 13/09 A2944 RMK AO2 PK WND 35030/0729 SLP968 P0000 T01280094
 
KHTO - East Hampton, New York, USA
Distance from station: E 96mi, 155km
Updated: 10/27/2021 4:35am
Overcast
Overcast
 Wind from N
Wind: N 20 mph , 31 km/h, Gust: 28 mph , 44 km/h
Temperature: 55°F , 13°C
Dew Point: 50°F , 10°C
Humidity: 82%
Barometer: 29.34 inHg , 993.6 hPa
Clouds: Overcast
Visibility: 10 miles , 16 km
Cloud details: Overcast 2000 ft
2021/10/27 08:35 KHTO 270835Z AUTO 35017G24KT 10SM OVC020 13/10 A2934 RMK AO2 P0004 T01250100
KACY - Atlantic City, New Jersey, USA
Distance from station: SSW 99mi, 160km
Updated: 10/27/2021 4:29am
Overcast
Overcast
 Wind from NW
Wind: NW 13 mph , 20 km/h
Temperature: 54°F , 12°C
Dew Point: 52°F , 11°C
Humidity: 94%
Barometer: 29.53 inHg , 1000 hPa
Clouds: Overcast
Visibility: 10 miles , 16 km
Cloud details: Partly cloudy 800 ft
Overcast 3000 ft
2021/10/27 08:29 KACY 270829Z 31011KT 10SM SCT008 OVC030 12/11 A2953 RMK AO2 T01170111